Aérodrome :
LOGIN :

S'inscrire | Disclaimer

   EN    FR    IT 

 










Légende :    VFR   VFR Marginal   IFR   IFR Intensif   IFR Très Intensif
Visi : 
Plafond : 
>= 8 km
>= 3000ft
5 à 8 km
1000 à 3000 ft
1500m à 5 km
500 à 1000 ft
800 à 1500m
200 à 500 ft
< 800m
< 200 ft
Symboles :   Orages  Brouillard  Fortes neiges  Fortes précipitations  Vent > 20 kt
SIGMETs :   Divers  Orages  Givrage  Turbulence  Onde Orograph.  Cendres Volcan.







- Altitude de l'aérodrome : 640 ft
- Code IATA : AOC


EDAC - Altenburg-Nobitz

DERNIER METAR :
  • 210020Z AUTO 12002KT 0500 R04/0600N // SCT001/// BKN004/// 11/11 Q1001

METARs EXPIRÉS :
  • 202350Z AUTO 15003KT 0900 R04/P2000N // BKN001/// BKN005/// 11/11 Q1001
  • 202320Z AUTO 12003KT 0800 R04/1200U // VV002 12/11 Q1001
  • 202250Z AUTO 12002KT 1400 R04/1200U // FEW001/// BKN016/// 12/12 Q1001
  • 202220Z AUTO VRB02KT 0450 R04/1800N // FEW014/// SCT084/// 12/11 Q1001
  • 202150Z AUTO VRB02KT 0600 R04/P2000N // FEW007/// SCT080/// 12/12 Q1001
  • 202120Z AUTO 13003KT 110V170 5000 // FEW005/// BKN007/// BKN025/// 13/13 Q1001

TAF TAF EDAC
Valide du 20 à 18h jusqu'au 21 à 03h UTC


201700Z 2018/2103 VRB03KT 9999 SCT030
PROB30
TEMPO 2018/2020 SHRA BKN025CB
BECMG 2018/2021 BKN012
TEMPO 2020/2103 3000 BR BKN006
Pas de NOTAMs connus pour ce terrain.



MET'MAP, la Météo Aéronautique d'un coup d'oeil ! - Copyright ORBIFLY Décembre 2007 - Disclaimer

ORBIFLY MET'MAP TEAM :

Programmation & Développement : Alexandra Zaïnal
Conception & Développement : Baudouin d'Aumeries
Co-Programmation & Développement : Marc-Olivier Méhu
Soutien technique & logistique : Manuel Goepfert

Contact : metmap@orbifly.com




SOURCES & CREDITS :

   NOAA